createdAt,value
2018-09-04T00:02:18.533Z,85.14
2018-09-04T00:04:47.301Z,85.09
2018-09-04T00:07:19.642Z,85.98
2018-09-04T00:09:48.808Z,85.81
2018-09-04T00:12:17.456Z,86.42
2018-09-04T00:14:46.260Z,85.83
2018-09-04T00:17:14.878Z,86.76
2018-09-04T00:19:43.703Z,86.21
2018-09-04T00:22:12.440Z,87.50
2018-09-04T00:24:41.117Z,87.27
2018-09-04T00:27:09.776Z,87.62
2018-09-04T00:29:38.714Z,87.58
2018-09-04T00:32:07.645Z,88.15
2018-09-04T00:34:36.348Z,88.05
2018-09-04T00:37:05.124Z,87.91
2018-09-04T00:39:36.708Z,88.12
2018-09-04T00:42:05.417Z,88.19
2018-09-04T00:44:34.271Z,88.31
2018-09-04T00:47:06.691Z,88.85
2018-09-04T00:49:35.484Z,89.03
2018-09-04T00:52:04.264Z,88.84
2018-09-04T00:54:32.994Z,89.31
2018-09-04T00:57:02.629Z,88.98
2018-09-04T00:59:34.206Z,89.57
2018-09-04T01:02:02.915Z,89.35
2018-09-04T01:04:31.558Z,89.51
2018-09-04T01:07:00.304Z,89.55
2018-09-04T01:09:29.069Z,89.65
2018-09-04T01:11:57.708Z,89.79
2018-09-04T01:14:26.404Z,89.61
2018-09-04T01:16:54.936Z,90.33
2018-09-04T01:19:23.572Z,89.78
2018-09-04T01:21:52.175Z,90.34
2018-09-04T01:24:20.835Z,90.11
2018-09-04T01:26:49.348Z,90.39
2018-09-04T01:29:18.048Z,90.33
2018-09-04T01:31:46.680Z,90.74
2018-09-04T01:34:15.378Z,90.39
2018-09-04T01:36:43.945Z,90.52
2018-09-04T01:39:12.579Z,90.48
2018-09-04T01:41:41.232Z,90.76
2018-09-04T01:44:09.852Z,90.99
2018-09-04T01:46:38.401Z,90.70
2018-09-04T01:49:07.094Z,91.07
2018-09-04T01:51:35.736Z,91.28
2018-09-04T01:54:04.300Z,91.07
2018-09-04T01:56:32.955Z,91.02
2018-09-04T01:59:01.616Z,90.88
2018-09-04T02:01:30.323Z,91.08
2018-09-04T02:03:58.979Z,91.26
2018-09-04T02:06:27.658Z,91.37
2018-09-04T02:08:56.340Z,91.63
2018-09-04T02:11:25.027Z,91.24
2018-09-04T02:13:53.710Z,91.07
2018-09-04T02:16:22.315Z,91.27
2018-09-04T02:18:51.004Z,91.67
2018-09-04T02:21:19.656Z,92.23
2018-09-04T02:23:48.206Z,91.50
2018-09-04T02:26:16.731Z,91.61
2018-09-04T02:28:45.391Z,91.24
2018-09-04T02:31:13.905Z,91.96
2018-09-04T02:33:42.481Z,91.54
2018-09-04T02:36:11.136Z,91.63
2018-09-04T02:38:39.696Z,92.07
2018-09-04T02:41:08.676Z,92.01
2018-09-04T02:43:37.280Z,91.66
2018-09-04T02:46:06.036Z,92.01
2018-09-04T02:48:34.549Z,91.71
2018-09-04T02:51:03.203Z,92.17
2018-09-04T02:53:31.862Z,92.11
2018-09-04T02:56:00.661Z,92.19
2018-09-04T02:58:29.349Z,92.22
2018-09-04T03:00:57.971Z,92.54
2018-09-04T03:03:26.638Z,92.68
2018-09-04T03:05:55.261Z,92.72
2018-09-04T03:08:23.795Z,92.51
2018-09-04T03:10:52.472Z,92.52
2018-09-04T03:13:21.167Z,92.58
2018-09-04T03:15:49.787Z,92.52
2018-09-04T03:18:19.527Z,92.95
2018-09-04T03:20:48.057Z,93.17
2018-09-04T03:23:16.809Z,93.23
2018-09-04T03:25:45.471Z,93.54
2018-09-04T03:28:14.041Z,93.12
2018-09-04T03:30:42.821Z,93.27
2018-09-04T03:33:11.651Z,93.69
2018-09-04T03:35:40.326Z,93.37
2018-09-04T03:38:08.873Z,93.48
2018-09-04T03:40:37.579Z,93.33
2018-09-04T03:43:07.197Z,93.53
2018-09-04T03:45:35.942Z,93.84
2018-09-04T03:48:04.816Z,93.50
2018-09-04T03:50:33.337Z,93.34
2018-09-04T03:53:01.960Z,93.34
2018-09-04T03:55:30.700Z,93.78
2018-09-04T03:57:59.282Z,93.76
2018-09-04T04:00:27.897Z,93.46
2018-09-04T04:02:56.705Z,94.01
2018-09-04T04:05:25.304Z,93.82
2018-09-04T04:07:54.038Z,93.94
2018-09-04T04:10:22.835Z,93.64
2018-09-04T04:12:51.510Z,93.89
2018-09-04T04:15:20.133Z,94.16
2018-09-04T04:17:48.710Z,93.90
2018-09-04T04:20:17.351Z,94.19
2018-09-04T04:22:46.555Z,94.15
2018-09-04T04:25:15.240Z,94.53
2018-09-04T04:27:43.831Z,94.40
2018-09-04T04:30:12.474Z,94.32
2018-09-04T04:32:41.078Z,93.73
2018-09-04T04:35:09.763Z,93.86
2018-09-04T04:37:38.304Z,94.14
2018-09-04T04:40:07.412Z,94.30
2018-09-04T04:42:36.064Z,94.16
2018-09-04T04:45:04.802Z,94.25
2018-09-04T04:47:38.681Z,94.23
2018-09-04T04:50:07.524Z,94.53
2018-09-04T04:52:36.177Z,94.27
2018-09-04T04:55:04.976Z,94.33
2018-09-04T04:57:33.598Z,94.48
2018-09-04T05:00:02.239Z,94.35
2018-09-04T05:02:30.968Z,94.46
2018-09-04T05:04:59.774Z,94.37
2018-09-04T05:07:28.450Z,94.56
2018-09-04T05:09:57.195Z,94.77
2018-09-04T05:12:25.978Z,94.81
2018-09-04T05:14:54.709Z,94.59
2018-09-04T05:17:23.344Z,95.05
2018-09-04T05:19:51.954Z,94.88
2018-09-04T05:22:20.630Z,94.96
2018-09-04T05:24:49.333Z,94.69
2018-09-04T05:27:18.102Z,94.91
2018-09-04T05:29:46.871Z,95.11
2018-09-04T05:32:20.709Z,94.86
2018-09-04T05:34:49.417Z,95.04
2018-09-04T05:37:18.213Z,95.20
2018-09-04T05:39:46.880Z,94.68
2018-09-04T05:42:20.736Z,94.67
2018-09-04T05:44:49.457Z,94.61
2018-09-04T05:47:18.252Z,94.62
2018-09-04T05:49:46.910Z,94.70
2018-09-04T05:52:16.477Z,93.85
2018-09-04T05:54:45.174Z,94.32
2018-09-04T05:57:13.921Z,94.67
2018-09-04T05:59:42.597Z,94.47
2018-09-04T06:02:11.380Z,94.55
2018-09-04T06:04:40.106Z,94.10
2018-09-04T06:07:08.787Z,94.32
2018-09-04T06:12:44.662Z,93.71
2018-09-04T06:15:13.939Z,94.25
2018-09-04T06:17:43.171Z,93.59
2018-09-04T06:20:12.792Z,94.14
2018-09-04T06:22:41.991Z,94.25
2018-09-04T06:25:11.459Z,93.64
2018-09-04T06:27:40.719Z,93.50
2018-09-04T06:30:10.182Z,92.87
2018-09-04T06:32:39.441Z,92.93
2018-09-04T06:35:08.864Z,93.45
2018-09-04T06:37:38.158Z,93.22
2018-09-04T06:40:07.668Z,93.09
2018-09-04T06:42:36.978Z,93.02
2018-09-04T06:45:06.381Z,92.28
2018-09-04T06:48:05.783Z,92.30
2018-09-04T06:50:49.730Z,92.25
2018-09-04T06:53:19.377Z,92.04
2018-09-04T06:56:14.478Z,91.49
2018-09-04T07:02:24.208Z,91.17
2018-09-04T07:04:53.635Z,90.63
2018-09-04T07:07:23.025Z,90.71
2018-09-04T07:10:00.194Z,90.11
2018-09-04T07:12:30.139Z,89.48
2018-09-04T07:15:03.979Z,90.08
2018-09-04T07:17:33.390Z,89.80
2018-09-04T07:20:04.036Z,88.71
2018-09-04T07:22:33.541Z,88.42
2018-09-04T07:25:02.930Z,88.17
2018-09-04T07:27:33.283Z,88.56
2018-09-04T07:30:12.581Z,88.64
2018-09-04T07:32:41.926Z,87.59
2018-09-04T07:35:11.074Z,87.78
2018-09-04T07:37:40.672Z,87.84
2018-09-04T07:40:10.062Z,86.75
2018-09-04T07:42:39.439Z,85.77
2018-09-04T07:45:09.719Z,85.91
2018-09-04T07:47:38.922Z,85.57
2018-09-04T07:50:09.243Z,84.15
2018-09-04T07:52:38.590Z,84.39
2018-09-04T07:55:08.211Z,83.45
2018-09-04T07:57:37.545Z,83.33
2018-09-04T08:00:07.639Z,82.49
2018-09-04T08:02:36.919Z,82.37
2018-09-04T08:05:06.427Z,80.68
2018-09-04T08:07:35.738Z,79.03
2018-09-04T08:10:05.113Z,78.29
2018-09-04T08:12:34.333Z,77.76
2018-09-04T08:15:03.656Z,77.69
2018-09-04T08:17:32.950Z,77.33
2018-09-04T08:20:02.378Z,75.46
2018-09-04T08:22:31.711Z,74.22
2018-09-04T08:25:00.947Z,73.89
2018-09-04T08:27:30.160Z,72.84
2018-09-04T08:29:59.491Z,71.57
2018-09-04T08:32:28.722Z,71.80
2018-09-04T08:34:57.907Z,72.27
2018-09-04T08:37:27.249Z,71.36
2018-09-04T08:39:56.498Z,70.79
2018-09-04T08:42:25.800Z,71.01
2018-09-04T08:44:55.171Z,69.85
2018-09-04T08:47:24.384Z,69.13
2018-09-04T08:49:53.775Z,67.72
2018-09-04T08:52:23.034Z,66.82
2018-09-04T08:54:52.441Z,66.57
2018-09-04T08:57:21.774Z,67.06
2018-09-04T08:59:50.978Z,66.60
2018-09-04T09:02:20.198Z,66.55
2018-09-04T09:04:49.366Z,66.78
2018-09-04T09:07:18.691Z,66.92
2018-09-04T09:09:47.894Z,65.94
2018-09-04T09:12:17.136Z,66.49
2018-09-04T09:14:46.346Z,64.10
2018-09-04T09:17:15.512Z,63.66
2018-09-04T09:19:44.683Z,63.52
2018-09-04T09:22:13.899Z,63.05
2018-09-04T09:24:43.118Z,62.78
2018-09-04T09:27:13.759Z,61.21
2018-09-04T09:29:42.965Z,59.58
2018-09-04T09:32:12.162Z,59.29
2018-09-04T09:34:41.538Z,59.64
2018-09-04T09:37:10.869Z,59.49
2018-09-04T09:39:40.193Z,59.48
2018-09-04T09:42:12.771Z,58.31
2018-09-04T09:44:43.958Z,58.40
2018-09-04T09:47:13.214Z,58.74
2018-09-04T09:49:42.583Z,56.95
2018-09-04T09:52:11.860Z,57.47
2018-09-04T09:54:41.015Z,58.26
2018-09-04T09:57:10.201Z,58.23
2018-09-04T09:59:39.487Z,58.37
2018-09-04T10:02:13.666Z,58.51
2018-09-04T10:04:43.062Z,58.06
2018-09-04T10:07:12.415Z,59.76
2018-09-04T10:09:41.827Z,60.92
2018-09-04T10:12:11.294Z,61.21
2018-09-04T10:14:40.538Z,62.31
2018-09-04T10:17:09.946Z,63.24
2018-09-04T10:19:39.157Z,63.62
2018-09-04T10:22:08.481Z,64.45
2018-09-04T10:24:37.826Z,64.20
2018-09-04T10:27:07.231Z,63.28
2018-09-04T10:29:36.441Z,63.56
2018-09-04T10:32:05.816Z,64.14
2018-09-04T10:34:34.969Z,63.41
2018-09-04T10:37:04.263Z,62.09
2018-09-04T10:39:38.649Z,62.49
2018-09-04T10:42:07.977Z,61.92
2018-09-04T10:44:37.222Z,60.17
2018-09-04T10:47:06.516Z,60.04
2018-09-04T10:49:35.735Z,59.55
2018-09-04T10:52:04.998Z,59.51
2018-09-04T10:54:34.399Z,58.86
2018-09-04T10:57:03.646Z,59.30
2018-09-04T10:59:32.882Z,58.64
2018-09-04T11:02:02.166Z,58.96
2018-09-04T11:04:31.534Z,58.99
2018-09-04T11:07:00.710Z,59.08
2018-09-04T11:09:30.185Z,57.43
2018-09-04T11:11:59.606Z,56.54
2018-09-04T11:14:28.774Z,56.21
2018-09-04T11:16:58.114Z,56.26
2018-09-04T11:19:27.418Z,55.93
2018-09-04T11:21:57.846Z,56.51
2018-09-04T11:24:27.078Z,55.38
2018-09-04T11:26:56.401Z,54.80
2018-09-04T11:29:25.590Z,53.86
2018-09-04T11:31:54.974Z,52.38
2018-09-04T11:34:24.129Z,53.07
2018-09-04T11:36:53.454Z,51.55
2018-09-04T11:39:22.750Z,52.33
2018-09-04T11:41:52.122Z,52.63
2018-09-04T11:44:21.305Z,52.33
2018-09-04T11:46:50.570Z,50.13
2018-09-04T11:49:19.785Z,49.69
2018-09-04T11:51:49.098Z,51.04
2018-09-04T11:54:18.417Z,50.33
2018-09-04T11:56:47.761Z,48.10
2018-09-04T11:59:17.060Z,46.78
2018-09-04T12:01:49.849Z,46.70
2018-09-04T12:04:19.179Z,46.36
2018-09-04T12:06:48.407Z,47.21
2018-09-04T12:09:17.843Z,46.96
2018-09-04T12:11:51.227Z,46.79
2018-09-04T12:14:20.955Z,45.38
2018-09-04T12:16:50.647Z,47.01
2018-09-04T12:19:19.899Z,44.18
2018-09-04T12:21:49.377Z,45.49
2018-09-04T12:24:18.649Z,45.81
2018-09-04T12:26:48.005Z,44.94
2018-09-04T12:29:17.199Z,44.57
2018-09-04T12:31:46.574Z,46.65
2018-09-04T12:34:15.926Z,47.46
2018-09-04T12:36:45.135Z,46.54
2018-09-04T12:39:14.346Z,45.08
2018-09-04T12:41:43.692Z,44.29
2018-09-04T12:44:12.942Z,44.72
2018-09-04T12:46:42.251Z,44.27
2018-09-04T12:49:11.489Z,42.36
2018-09-04T12:51:40.924Z,42.56
2018-09-04T12:54:10.114Z,42.51
2018-09-04T12:56:39.398Z,42.12
2018-09-04T12:59:08.674Z,42.91
2018-09-04T13:01:37.988Z,44.58
2018-09-04T13:04:07.233Z,45.70
2018-09-04T13:06:36.466Z,47.28
2018-09-04T13:09:07.171Z,46.49
2018-09-04T13:11:36.437Z,42.62
2018-09-04T13:14:06.335Z,35.29
2018-09-04T13:16:35.682Z,31.58
2018-09-04T13:19:04.974Z,27.81
2018-09-04T13:21:34.205Z,27.43
2018-09-04T13:24:03.449Z,26.89
2018-09-04T13:26:32.805Z,24.64
2018-09-04T13:29:02.035Z,25.07
2018-09-04T13:31:31.308Z,25.49
2018-09-04T13:34:00.720Z,24.50
2018-09-04T13:36:30.205Z,23.64
2018-09-04T13:38:59.367Z,23.83
2018-09-04T13:41:32.666Z,24.30
2018-09-04T13:44:02.011Z,25.32
2018-09-04T13:46:31.293Z,27.00
2018-09-04T13:49:00.645Z,27.30
2018-09-04T13:51:29.886Z,24.70
2018-09-04T13:53:59.353Z,23.72
2018-09-04T13:56:28.530Z,24.73
2018-09-04T13:58:57.845Z,25.01
2018-09-04T14:01:27.189Z,24.41
2018-09-04T14:03:56.583Z,23.87
2018-09-04T14:06:25.832Z,23.07
2018-09-04T14:08:55.086Z,22.20
2018-09-04T14:11:24.443Z,21.41
2018-09-04T14:13:53.748Z,21.53
2018-09-04T14:16:24.968Z,22.29
2018-09-04T14:18:54.163Z,25.45
2018-09-04T14:21:23.387Z,24.88
2018-09-04T14:23:52.679Z,23.37
2018-09-04T14:26:21.937Z,21.40
2018-09-04T14:29:06.422Z,21.79
2018-09-04T14:31:20.514Z,21.63
2018-09-04T14:33:49.858Z,23.57
2018-09-04T14:36:19.181Z,23.54
2018-09-04T14:38:48.406Z,21.41
2018-09-04T14:41:17.769Z,21.16
2018-09-04T14:43:48.015Z,20.42
2018-09-04T14:46:17.262Z,19.56
2018-09-04T14:48:46.650Z,19.37
2018-09-04T14:51:16.017Z,20.09
2018-09-04T14:53:46.473Z,18.54
2018-09-04T14:56:15.674Z,18.92
2018-09-04T14:58:44.942Z,18.67
2018-09-04T15:01:14.139Z,18.11
2018-09-04T15:03:43.594Z,17.11
2018-09-04T15:06:12.853Z,16.99
2018-09-04T15:08:42.293Z,19.39
2018-09-04T15:11:11.566Z,26.61
2018-09-04T15:13:41.108Z,33.46
2018-09-04T15:16:10.371Z,38.48
2018-09-04T15:18:39.694Z,42.30
2018-09-04T15:21:08.990Z,45.97
2018-09-04T15:23:38.293Z,50.02
2018-09-04T15:26:07.830Z,50.32
2018-09-04T15:28:36.999Z,52.13
2018-09-04T15:31:06.563Z,55.72
2018-09-04T15:33:35.942Z,57.76
2018-09-04T15:36:05.334Z,59.21
2018-09-04T15:38:34.632Z,60.88
2018-09-04T15:42:19.498Z,63.12
2018-09-04T15:44:48.797Z,64.10
2018-09-04T15:47:17.971Z,64.39
2018-09-04T15:49:48.522Z,65.41
2018-09-04T15:52:18.246Z,65.64
2018-09-04T15:54:47.521Z,66.13
2018-09-04T15:57:16.767Z,65.80
2018-09-04T15:59:45.947Z,65.86
2018-09-04T16:02:15.214Z,66.71
2018-09-04T16:04:44.534Z,65.72
2018-09-04T16:07:13.822Z,65.93
2018-09-04T16:09:43.287Z,65.05
2018-09-04T16:12:12.514Z,64.53
2018-09-04T16:14:41.869Z,63.88
2018-09-04T16:17:11.327Z,63.58
2018-09-04T16:19:40.601Z,62.36
2018-09-04T16:22:09.821Z,62.93
2018-09-04T16:24:38.969Z,61.99
2018-09-04T16:27:08.213Z,61.75
2018-09-04T16:29:37.517Z,60.47
2018-09-04T16:32:06.902Z,59.27
2018-09-04T16:34:36.242Z,59.01
2018-09-04T16:37:05.534Z,58.14
2018-09-04T16:39:34.883Z,58.94
2018-09-04T16:42:04.079Z,58.61
2018-09-04T16:44:33.348Z,54.89
2018-09-04T16:47:02.638Z,53.72
2018-09-04T16:49:31.846Z,52.36
2018-09-04T16:52:01.849Z,57.17
2018-09-04T16:54:31.280Z,64.42
2018-09-04T16:57:00.576Z,69.96
2018-09-04T16:59:30.003Z,72.20
2018-09-04T17:01:59.160Z,74.64
2018-09-04T17:04:28.459Z,76.52
2018-09-04T17:06:57.731Z,78.16
2018-09-04T17:09:26.974Z,79.13
2018-09-04T17:11:56.260Z,79.12
2018-09-04T17:14:25.399Z,79.33
2018-09-04T17:16:54.745Z,79.46
2018-09-04T17:19:24.081Z,80.58
2018-09-04T17:21:53.465Z,80.51
2018-09-04T17:24:22.654Z,81.16
2018-09-04T17:26:52.034Z,81.19
2018-09-04T17:29:21.289Z,81.81
2018-09-04T17:31:50.485Z,81.82
2018-09-04T17:34:19.753Z,82.03
2018-09-04T17:36:48.989Z,83.63
2018-09-04T17:39:18.276Z,84.73
2018-09-04T17:41:47.630Z,84.45
2018-09-04T17:44:16.814Z,84.86
2018-09-04T17:46:46.068Z,84.72
2018-09-04T17:49:15.304Z,84.73
2018-09-04T17:51:44.602Z,85.35
2018-09-04T17:54:13.882Z,85.02
2018-09-04T17:56:43.178Z,85.56
2018-09-04T17:59:12.442Z,86.30
2018-09-04T18:01:41.664Z,86.08
2018-09-04T18:04:10.858Z,86.46
2018-09-04T18:06:40.015Z,86.37
2018-09-04T18:09:09.567Z,86.02
2018-09-04T18:11:38.717Z,86.55
2018-09-04T18:14:08.054Z,86.66
2018-09-04T18:16:37.337Z,86.55
2018-09-04T18:19:06.662Z,87.57
2018-09-04T18:21:36.102Z,87.53
2018-09-04T18:24:05.506Z,87.20
2018-09-04T18:26:34.764Z,87.73
2018-09-04T18:29:03.990Z,87.96
2018-09-04T18:31:33.360Z,87.54
2018-09-04T18:34:02.559Z,87.79
2018-09-04T18:36:31.785Z,87.84
2018-09-04T18:39:01.058Z,88.01
2018-09-04T18:41:30.415Z,88.59
2018-09-04T18:43:59.701Z,88.51
2018-09-04T18:46:28.958Z,88.80
2018-09-04T18:48:58.292Z,88.76
2018-09-04T18:51:27.747Z,89.08
2018-09-04T18:53:57.726Z,88.52
2018-09-04T18:56:27.145Z,89.07
2018-09-04T18:58:56.419Z,89.06
2018-09-04T19:01:25.682Z,89.27
2018-09-04T19:03:55.045Z,89.13
2018-09-04T19:06:24.294Z,89.70
2018-09-04T19:08:53.538Z,89.54
2018-09-04T19:11:22.846Z,89.52
2018-09-04T19:13:51.982Z,89.70
2018-09-04T19:16:21.175Z,89.95
2018-09-04T19:18:50.498Z,90.09
2018-09-04T19:21:19.865Z,89.84
2018-09-04T19:23:49.236Z,90.18
2018-09-04T19:26:18.482Z,89.89
2018-09-04T19:28:47.890Z,89.78
2018-09-04T19:31:17.161Z,89.96
2018-09-04T19:33:46.496Z,90.69
2018-09-04T19:36:15.696Z,90.68
2018-09-04T19:38:44.966Z,90.99
2018-09-04T19:41:14.183Z,90.81
2018-09-04T19:43:43.498Z,90.91
2018-09-04T19:46:12.641Z,91.14
2018-09-04T19:48:41.891Z,90.82
2018-09-04T19:51:11.088Z,91.34
2018-09-04T19:53:40.330Z,91.43
2018-09-04T19:56:09.687Z,90.98
2018-09-04T19:58:38.998Z,91.79
2018-09-04T20:01:08.240Z,91.87
2018-09-04T20:03:37.571Z,91.50
2018-09-04T20:06:06.741Z,91.66
2018-09-04T20:08:36.003Z,91.52
2018-09-04T20:11:05.170Z,91.86
2018-09-04T20:13:34.360Z,91.94
2018-09-04T20:16:03.681Z,92.12
2018-09-04T20:18:32.914Z,91.98
2018-09-04T20:21:02.235Z,92.35
2018-09-04T20:23:31.527Z,92.19
2018-09-04T20:26:00.713Z,92.57
2018-09-04T20:28:29.966Z,92.24
2018-09-04T20:30:59.112Z,92.46
2018-09-04T20:33:28.298Z,93.01
2018-09-04T20:35:57.597Z,93.12
2018-09-04T20:38:26.733Z,92.98
2018-09-04T20:40:55.950Z,93.18
2018-09-04T20:43:25.386Z,92.92
2018-09-04T20:45:54.521Z,92.67
2018-09-04T20:48:23.666Z,92.69
2018-09-04T20:50:53.007Z,93.31
2018-09-04T20:53:22.214Z,93.06
2018-09-04T20:55:51.513Z,92.70
2018-09-04T20:58:31.978Z,92.98
2018-09-04T21:01:11.870Z,93.23
2018-09-04T21:03:52.053Z,93.72
2018-09-04T21:06:32.014Z,93.65
2018-09-04T21:09:07.265Z,93.42
2018-09-04T21:11:36.506Z,93.98
2018-09-04T21:14:05.846Z,93.33
2018-09-04T21:16:35.093Z,93.60
2018-09-04T21:19:04.338Z,93.69
2018-09-04T21:21:33.618Z,93.99
2018-09-04T21:24:02.841Z,93.79
2018-09-04T21:26:32.048Z,94.11
2018-09-04T21:29:01.588Z,93.89
2018-09-04T21:31:30.926Z,94.11
2018-09-04T21:34:00.038Z,94.58
2018-09-04T21:36:29.416Z,93.79
2018-09-04T21:38:58.741Z,93.84
2018-09-04T21:41:28.012Z,94.12
2018-09-04T21:43:57.284Z,94.19
2018-09-04T21:46:26.494Z,93.94
2018-09-04T21:48:55.701Z,94.33
2018-09-04T21:51:24.983Z,93.86
2018-09-04T21:53:54.064Z,94.40
2018-09-04T21:56:23.318Z,94.34
2018-09-04T21:58:52.526Z,94.40
2018-09-04T22:01:21.720Z,94.57
2018-09-04T22:03:51.018Z,94.38
2018-09-04T22:06:20.183Z,94.51
2018-09-04T22:08:49.654Z,94.55
2018-09-04T22:11:18.914Z,94.54
2018-09-04T22:13:48.134Z,94.32
2018-09-04T22:16:17.457Z,94.84
2018-09-04T22:18:46.855Z,94.71
2018-09-04T22:21:16.269Z,95.12
2018-09-04T22:23:45.362Z,94.89
2018-09-04T22:26:14.556Z,95.24
2018-09-04T22:28:43.659Z,94.85
2018-09-04T22:31:13.019Z,95.18
2018-09-04T22:33:42.263Z,95.03
2018-09-04T22:36:11.489Z,95.01
2018-09-04T22:38:40.619Z,95.28
2018-09-04T22:41:09.765Z,95.06
2018-09-04T22:43:39.008Z,94.67
2018-09-04T22:46:08.470Z,94.63
2018-09-04T22:48:37.716Z,94.83
2018-09-04T22:51:12.030Z,94.77
2018-09-04T22:53:41.201Z,94.74
2018-09-04T22:56:10.507Z,95.27
2018-09-04T22:58:39.658Z,95.12
2018-09-04T23:01:08.776Z,95.54
2018-09-04T23:03:37.908Z,95.73
2018-09-04T23:06:07.193Z,95.64
2018-09-04T23:08:36.342Z,95.07
2018-09-04T23:11:05.572Z,95.11
2018-09-04T23:13:34.794Z,95.19
2018-09-04T23:16:04.106Z,95.10
2018-09-04T23:18:33.203Z,95.43
2018-09-04T23:21:02.342Z,94.93
2018-09-04T23:23:31.574Z,95.20
2018-09-04T23:26:00.858Z,95.51
2018-09-04T23:28:29.945Z,95.10
2018-09-04T23:30:59.333Z,95.54
2018-09-04T23:33:28.607Z,95.17
2018-09-04T23:35:57.830Z,95.60
2018-09-04T23:38:26.991Z,95.69
2018-09-04T23:40:56.210Z,96.11
2018-09-04T23:43:25.415Z,95.87
2018-09-04T23:45:54.668Z,95.65
2018-09-04T23:48:23.911Z,95.64
2018-09-04T23:50:53.311Z,95.53
2018-09-04T23:53:22.545Z,95.11
2018-09-04T23:55:51.741Z,95.57
2018-09-04T23:58:21.087Z,95.53
